Create Tblcommutelog Verified Points Advance Search
| # | Trip ID | Id Commuter | Trip Date | Trip Num | Current Lat | Current Lng | Delta Distance | Current Time | Activity | Activity Confidence | Current Speed | |
|---|---|---|---|---|---|---|---|---|---|---|---|---|
| 73121 | 251112_780805_16496249_0904 | 780805 | (not set) | (not set) | 38.945165101661 | -76.9994635182 | 5.4348 | 2025-11-12 09:18:32 | in_vehicle | 100 | 11.971711355691 | |
| 73122 | 251112_781273_16424909_0801 | 781273 | (not set) | (not set) | 38.898165564703 | -77.027969553316 | 7.6747 | 2025-11-12 09:18:32 | on_foot | 100 | -0.44703925898772 | |
| 73123 | 251112_781273_16424909_0801 | 781273 | (not set) | (not set) | 38.898159411289 | -77.028417307615 | 7.6747 | 2025-11-12 09:18:32 | on_foot | 100 | -0.44703925898772 | |
| 73124 | 251112_781273_16424909_0801 | 781273 | (not set) | (not set) | 38.898165564703 | -77.027969553316 | 7.6747 | 2025-11-12 09:18:32 | on_foot | 100 | -0.44703925898772 | |
| 73125 | 251112_781273_16424909_0801 | 781273 | (not set) | (not set) | 38.898159411289 | -77.028417307615 | 7.6747 | 2025-11-12 09:18:32 | on_foot | 100 | -0.44703925898772 | |
| 73126 | 251112_787150_16428277_0852 | 787150 | (not set) | (not set) | 38.992249156047 | -76.580356352675 | 24.6787 | 2025-11-12 09:18:33 | in_vehicle | 100 | 14.716532405876 | |
| 73127 | 251112_651912_16494712_0909 | 651912 | (not set) | (not set) | 39.259459966667 | -76.674214633333 | 5.862 | 2025-11-12 09:18:33 | in_vehicle | 100 | 11.497849741164 | |
| 73128 | 251112_771892_16513328_0855 | 771892 | (not set) | (not set) | 38.906833674472 | -77.003215486339 | 5.4978 | 2025-11-12 09:18:37 | in_vehicle | 100 | 4.224520997434 | |
| 73129 | 251112_788821_16515705_0914 | 788821 | (not set) | (not set) | 39.0808468 | -77.1421199 | 2.8343 | 2025-11-12 09:18:40 | in_vehicle | 100 | 9.687340742264 | |
| 73130 | 251112_788750_16496249_0832 | 788750 | (not set) | (not set) | 38.901277478516 | -77.042571415224 | 2.6367 | 2025-11-12 09:18:40 | on_foot | 100 | 0.73314438473987 | |
| 73131 | 251112_785997_16503772_0829 | 785997 | (not set) | (not set) | 39.336248618642 | -76.427096345358 | 24.295 | 2025-11-12 09:18:40 | in_vehicle | 100 | 8.2746966838628 | |
| 73132 | 251112_785997_16503772_0829 | 785997 | (not set) | (not set) | 39.336248618642 | -76.427096345358 | 24.295 | 2025-11-12 09:18:40 | in_vehicle | 100 | 8.2746966838628 | |
| 73133 | 251112_780809_16496249_0815 | 780809 | (not set) | (not set) | 38.901148188823 | -77.046030379684 | 22.2499 | 2025-11-12 09:18:40 | in_vehicle | 100 | -0.44703925898772 | |
| 73134 | 251112_777589_16507005_0839 | 777589 | (not set) | (not set) | 38.91635606371 | -77.227575498916 | 13.672 | 2025-11-12 09:18:41 | in_vehicle | 100 | 6.0260892111545 | |
| 73135 | 251112_754262_16468827_0909 | 754262 | (not set) | (not set) | 38.902668690002 | -77.038687657654 | 0.4005 | 2025-11-12 09:18:41 | on_foot | 100 | 0.43362808121809 | |
| 73136 | 251112_780947_6461772_0847 | 780947 | (not set) | (not set) | 38.888292644318 | -77.027601954486 | 8.7283 | 2025-11-12 09:18:41 | in_vehicle | 100 | -0.44703925898772 | |
| 73137 | 251112_780805_16496249_0904 | 780805 | (not set) | (not set) | 38.942495894541 | -76.998056392905 | 5.6339 | 2025-11-12 09:18:43 | in_vehicle | 100 | 13.254714028986 | |
| 73138 | 251112_698742_16447752_0857 | 698742 | (not set) | (not set) | 38.810696172969 | -77.149125088663 | 3.7331 | 2025-11-12 09:18:44 | in_vehicle | 100 | 4.6313267231128 | |
| 73139 | 251112_788741_6441454_0900 | 788741 | (not set) | (not set) | 38.998999617425 | -77.097839116895 | 9.437 | 2025-11-12 09:18:44 | on_foot | 100 | 0 | |
| 73140 | 251112_788741_6441454_0900 | 788741 | (not set) | (not set) | 38.999020924095 | -77.097815017928 | 9.437 | 2025-11-12 09:18:45 | on_foot | 100 | -0.44703925898772 |